sensor_id;sensor_type;location;lat;lon;timestamp;temperature;humidity
1806;DHT22;901;48.142;11.516;2023-04-25T00:00:36;7.70;99.90
1806;DHT22;901;48.142;11.516;2023-04-25T00:03:04;7.70;99.90
1806;DHT22;901;48.142;11.516;2023-04-25T00:05:31;7.70;99.90
1806;DHT22;901;48.142;11.516;2023-04-25T00:07:58;7.70;99.90
1806;DHT22;901;48.142;11.516;2023-04-25T00:10:25;7.70;99.90
1806;DHT22;901;48.142;11.516;2023-04-25T00:12:52;7.80;99.90
1806;DHT22;901;48.142;11.516;2023-04-25T00:15:19;7.90;99.90
1806;DHT22;901;48.142;11.516;2023-04-25T00:17:46;7.90;99.90
1806;DHT22;901;48.142;11.516;2023-04-25T00:20:14;7.90;99.90
1806;DHT22;901;48.142;11.516;2023-04-25T00:22:41;8.00;99.90
1806;DHT22;901;48.142;11.516;2023-04-25T00:25:08;8.00;99.90
1806;DHT22;901;48.142;11.516;2023-04-25T00:27:35;8.10;99.90
1806;DHT22;901;48.142;11.516;2023-04-25T00:30:02;8.10;99.90
1806;DHT22;901;48.142;11.516;2023-04-25T00:32:29;8.20;99.90
1806;DHT22;901;48.142;11.516;2023-04-25T00:34:56;8.20;99.90
1806;DHT22;901;48.142;11.516;2023-04-25T00:37:25;8.20;99.90
1806;DHT22;901;48.142;11.516;2023-04-25T00:39:51;8.20;99.90
1806;DHT22;901;48.142;11.516;2023-04-25T00:42:19;8.30;99.90
1806;DHT22;901;48.142;11.516;2023-04-25T00:44:46;8.10;99.90
1806;DHT22;901;48.142;11.516;2023-04-25T00:47:15;8.00;99.90
1806;DHT22;901;48.142;11.516;2023-04-25T00:49:42;8.00;99.90
1806;DHT22;901;48.142;11.516;2023-04-25T00:52:09;7.90;99.90
1806;DHT22;901;48.142;11.516;2023-04-25T00:54:38;7.80;99.90
1806;DHT22;901;48.142;11.516;2023-04-25T00:57:04;7.80;99.90
1806;DHT22;901;48.142;11.516;2023-04-25T00:59:31;7.70;99.90
1806;DHT22;901;48.142;11.516;2023-04-25T01:01:58;7.60;99.90
1806;DHT22;901;48.142;11.516;2023-04-25T01:04:27;7.50;99.90
1806;DHT22;901;48.142;11.516;2023-04-25T01:06:54;7.40;99.90
1806;DHT22;901;48.142;11.516;2023-04-25T01:09:22;7.40;99.90
1806;DHT22;901;48.142;11.516;2023-04-25T01:11:50;7.30;99.90
1806;DHT22;901;48.142;11.516;2023-04-25T01:14:17;7.30;99.90
1806;DHT22;901;48.142;11.516;2023-04-25T01:16:44;7.30;99.90
1806;DHT22;901;48.142;11.516;2023-04-25T01:19:11;7.30;99.90
1806;DHT22;901;48.142;11.516;2023-04-25T01:21:39;7.20;99.90
1806;DHT22;901;48.142;11.516;2023-04-25T01:24:07;7.20;99.90
1806;DHT22;901;48.142;11.516;2023-04-25T01:26:34;7.10;99.90
1806;DHT22;901;48.142;11.516;2023-04-25T01:29:01;7.10;99.90
1806;DHT22;901;48.142;11.516;2023-04-25T01:31:30;7.10;99.90
1806;DHT22;901;48.142;11.516;2023-04-25T01:33:58;7.00;99.90
1806;DHT22;901;48.142;11.516;2023-04-25T01:36:25;6.90;99.90
1806;DHT22;901;48.142;11.516;2023-04-25T01:38:53;6.80;99.90
1806;DHT22;901;48.142;11.516;2023-04-25T01:41:20;6.90;99.90
1806;DHT22;901;48.142;11.516;2023-04-25T01:43:48;6.80;99.90
1806;DHT22;901;48.142;11.516;2023-04-25T01:46:16;6.80;99.90
1806;DHT22;901;48.142;11.516;2023-04-25T01:48:43;6.80;99.90
1806;DHT22;901;48.142;11.516;2023-04-25T01:51:10;6.80;99.90
1806;DHT22;901;48.142;11.516;2023-04-25T01:53:37;6.70;99.90
1806;DHT22;901;48.142;11.516;2023-04-25T01:56:06;6.70;99.90
1806;DHT22;901;48.142;11.516;2023-04-25T01:58:33;6.70;99.90
1806;DHT22;901;48.142;11.516;2023-04-25T02:01:00;6.30;99.90
1806;DHT22;901;48.142;11.516;2023-04-25T02:03:27;6.60;99.90
1806;DHT22;901;48.142;11.516;2023-04-25T02:05:54;6.60;99.90
1806;DHT22;901;48.142;11.516;2023-04-25T02:08:21;6.50;99.90
1806;DHT22;901;48.142;11.516;2023-04-25T02:10:47;6.60;99.90
1806;DHT22;901;48.142;11.516;2023-04-25T02:13:16;6.50;99.90
1806;DHT22;901;48.142;11.516;2023-04-25T02:15:42;6.50;99.90
1806;DHT22;901;48.142;11.516;2023-04-25T02:18:09;6.60;99.90
1806;DHT22;901;48.142;11.516;2023-04-25T02:20:36;6.60;99.90
1806;DHT22;901;48.142;11.516;2023-04-25T02:23:03;6.60;99.90
1806;DHT22;901;48.142;11.516;2023-04-25T02:25:30;6.70;99.90
1806;DHT22;901;48.142;11.516;2023-04-25T02:27:57;6.70;99.90
1806;DHT22;901;48.142;11.516;2023-04-25T02:30:25;6.80;99.90
1806;DHT22;901;48.142;11.516;2023-04-25T02:32:52;6.80;99.90
1806;DHT22;901;48.142;11.516;2023-04-25T02:35:19;6.90;99.90
1806;DHT22;901;48.142;11.516;2023-04-25T02:37:46;6.90;99.90
1806;DHT22;901;48.142;11.516;2023-04-25T02:40:12;7.00;99.90
1806;DHT22;901;48.142;11.516;2023-04-25T02:42:39;7.00;99.90
1806;DHT22;901;48.142;11.516;2023-04-25T02:45:07;7.00;99.90
1806;DHT22;901;48.142;11.516;2023-04-25T02:47:36;7.10;99.90
1806;DHT22;901;48.142;11.516;2023-04-25T02:50:03;7.20;99.90
1806;DHT22;901;48.142;11.516;2023-04-25T02:52:30;7.20;99.90
1806;DHT22;901;48.142;11.516;2023-04-25T02:54:57;7.30;99.90
1806;DHT22;901;48.142;11.516;2023-04-25T02:57:23;7.30;99.90
1806;DHT22;901;48.142;11.516;2023-04-25T02:59:50;7.40;99.90
1806;DHT22;901;48.142;11.516;2023-04-25T03:02:17;7.50;99.90
1806;DHT22;901;48.142;11.516;2023-04-25T03:04:45;7.50;99.90
1806;DHT22;901;48.142;11.516;2023-04-25T03:07:13;7.50;99.90
1806;DHT22;901;48.142;11.516;2023-04-25T03:09:40;7.50;99.90
1806;DHT22;901;48.142;11.516;2023-04-25T03:12:07;7.60;99.90
1806;DHT22;901;48.142;11.516;2023-04-25T03:14:33;7.60;99.90
1806;DHT22;901;48.142;11.516;2023-04-25T03:17:00;7.60;99.90
1806;DHT22;901;48.142;11.516;2023-04-25T03:19:27;7.70;99.90
1806;DHT22;901;48.142;11.516;2023-04-25T03:21:55;7.70;99.90
1806;DHT22;901;48.142;11.516;2023-04-25T03:24:22;7.70;99.90
1806;DHT22;901;48.142;11.516;2023-04-25T03:26:49;7.70;99.90
1806;DHT22;901;48.142;11.516;2023-04-25T03:29:16;7.70;99.90
1806;DHT22;901;48.142;11.516;2023-04-25T03:31:42;7.70;99.90
1806;DHT22;901;48.142;11.516;2023-04-25T03:34:09;7.70;99.90
1806;DHT22;901;48.142;11.516;2023-04-25T03:36:36;7.60;99.90
1806;DHT22;901;48.142;11.516;2023-04-25T03:39:04;7.50;99.90
1806;DHT22;901;48.142;11.516;2023-04-25T03:41:31;7.40;99.90
1806;DHT22;901;48.142;11.516;2023-04-25T03:43:58;7.40;99.90
1806;DHT22;901;48.142;11.516;2023-04-25T03:46:25;7.30;99.90
1806;DHT22;901;48.142;11.516;2023-04-25T03:48:51;7.30;99.90
1806;DHT22;901;48.142;11.516;2023-04-25T03:51:18;7.20;99.90
1806;DHT22;901;48.142;11.516;2023-04-25T03:53:45;7.20;99.90
1806;DHT22;901;48.142;11.516;2023-04-25T03:56:13;7.20;99.90
1806;DHT22;901;48.142;11.516;2023-04-25T03:58:40;7.20;99.90
1806;DHT22;901;48.142;11.516;2023-04-25T04:01:07;7.10;99.90
1806;DHT22;901;48.142;11.516;2023-04-25T04:03:34;7.20;99.90
1806;DHT22;901;48.142;11.516;2023-04-25T04:06:01;7.20;99.90
1806;DHT22;901;48.142;11.516;2023-04-25T04:08:29;7.20;99.90
1806;DHT22;901;48.142;11.516;2023-04-25T04:10:57;7.20;99.90
1806;DHT22;901;48.142;11.516;2023-04-25T04:13:26;7.20;99.90
1806;DHT22;901;48.142;11.516;2023-04-25T04:15:54;7.30;99.90
1806;DHT22;901;48.142;11.516;2023-04-25T04:18:21;7.30;99.90
1806;DHT22;901;48.142;11.516;2023-04-25T04:20:48;7.20;99.90
1806;DHT22;901;48.142;11.516;2023-04-25T04:23:15;7.20;99.90
1806;DHT22;901;48.142;11.516;2023-04-25T04:25:42;7.20;99.90
1806;DHT22;901;48.142;11.516;2023-04-25T04:28:09;7.20;99.90
1806;DHT22;901;48.142;11.516;2023-04-25T04:30:37;7.30;99.90
1806;DHT22;901;48.142;11.516;2023-04-25T04:33:04;7.30;99.90
1806;DHT22;901;48.142;11.516;2023-04-25T04:35:33;7.30;99.90
1806;DHT22;901;48.142;11.516;2023-04-25T04:38:00;7.40;99.90
1806;DHT22;901;48.142;11.516;2023-04-25T04:40:27;7.40;99.90
1806;DHT22;901;48.142;11.516;2023-04-25T04:42:55;7.40;99.90
1806;DHT22;901;48.142;11.516;2023-04-25T04:45:22;7.40;99.90
1806;DHT22;901;48.142;11.516;2023-04-25T04:47:51;7.40;99.90
1806;DHT22;901;48.142;11.516;2023-04-25T04:50:18;7.50;99.90
1806;DHT22;901;48.142;11.516;2023-04-25T04:52:45;7.50;99.90
1806;DHT22;901;48.142;11.516;2023-04-25T04:55:12;7.50;99.90
1806;DHT22;901;48.142;11.516;2023-04-25T04:57:38;7.50;99.90
1806;DHT22;901;48.142;11.516;2023-04-25T05:00:06;7.50;99.90
1806;DHT22;901;48.142;11.516;2023-04-25T05:02:36;7.60;99.90
1806;DHT22;901;48.142;11.516;2023-04-25T05:05:05;7.60;99.90
1806;DHT22;901;48.142;11.516;2023-04-25T05:07:32;7.60;99.90
1806;DHT22;901;48.142;11.516;2023-04-25T05:09:58;7.70;99.90
1806;DHT22;901;48.142;11.516;2023-04-25T05:12:25;7.80;99.90
1806;DHT22;901;48.142;11.516;2023-04-25T05:14:53;7.80;99.90
1806;DHT22;901;48.142;11.516;2023-04-25T05:17:19;7.80;99.90
1806;DHT22;901;48.142;11.516;2023-04-25T05:19:46;7.70;99.90
1806;DHT22;901;48.142;11.516;2023-04-25T05:22:14;7.70;99.90
1806;DHT22;901;48.142;11.516;2023-04-25T05:24:41;7.70;99.90
1806;DHT22;901;48.142;11.516;2023-04-25T05:27:08;7.80;99.90
1806;DHT22;901;48.142;11.516;2023-04-25T05:29:35;7.80;99.90
1806;DHT22;901;48.142;11.516;2023-04-25T05:32:02;7.80;99.90
1806;DHT22;901;48.142;11.516;2023-04-25T05:34:28;7.90;99.90
1806;DHT22;901;48.142;11.516;2023-04-25T05:36:55;7.80;99.90
1806;DHT22;901;48.142;11.516;2023-04-25T05:39:23;7.90;99.90
1806;DHT22;901;48.142;11.516;2023-04-25T05:41:50;8.00;99.90
1806;DHT22;901;48.142;11.516;2023-04-25T05:44:17;8.00;99.90
1806;DHT22;901;48.142;11.516;2023-04-25T05:46:44;8.10;99.90
1806;DHT22;901;48.142;11.516;2023-04-25T05:49:11;8.10;99.90
1806;DHT22;901;48.142;11.516;2023-04-25T05:51:37;8.10;99.90
1806;DHT22;901;48.142;11.516;2023-04-25T05:54:04;8.10;99.90
1806;DHT22;901;48.142;11.516;2023-04-25T05:56:32;8.00;99.90
1806;DHT22;901;48.142;11.516;2023-04-25T05:58:59;7.80;99.90
1806;DHT22;901;48.142;11.516;2023-04-25T06:01:26;7.80;99.90
1806;DHT22;901;48.142;11.516;2023-04-25T06:03:53;7.70;99.90
1806;DHT22;901;48.142;11.516;2023-04-25T06:06:20;7.70;99.90
1806;DHT22;901;48.142;11.516;2023-04-25T06:08:46;7.60;99.90
1806;DHT22;901;48.142;11.516;2023-04-25T06:11:13;7.50;99.90
1806;DHT22;901;48.142;11.516;2023-04-25T06:13:41;7.50;99.90
1806;DHT22;901;48.142;11.516;2023-04-25T06:16:08;7.90;99.90
1806;DHT22;901;48.142;11.516;2023-04-25T06:18:35;7.30;99.90
1806;DHT22;901;48.142;11.516;2023-04-25T06:21:02;7.30;99.90
1806;DHT22;901;48.142;11.516;2023-04-25T06:23:29;7.50;99.90
1806;DHT22;901;48.142;11.516;2023-04-25T06:25:56;7.50;99.90
1806;DHT22;901;48.142;11.516;2023-04-25T06:28:22;7.70;99.90
1806;DHT22;901;48.142;11.516;2023-04-25T06:30:51;7.80;99.90
1806;DHT22;901;48.142;11.516;2023-04-25T06:33:18;8.00;99.90
1806;DHT22;901;48.142;11.516;2023-04-25T06:35:45;8.20;99.90
1806;DHT22;901;48.142;11.516;2023-04-25T06:38:12;8.30;99.90
1806;DHT22;901;48.142;11.516;2023-04-25T06:40:39;8.30;99.90
1806;DHT22;901;48.142;11.516;2023-04-25T06:43:05;8.20;99.90
1806;DHT22;901;48.142;11.516;2023-04-25T06:45:32;8.30;99.90
1806;DHT22;901;48.142;11.516;2023-04-25T06:48:00;8.40;99.90
1806;DHT22;901;48.142;11.516;2023-04-25T06:50:27;8.50;99.90
1806;DHT22;901;48.142;11.516;2023-04-25T06:52:54;8.80;99.90
1806;DHT22;901;48.142;11.516;2023-04-25T06:55:21;9.00;99.90
1806;DHT22;901;48.142;11.516;2023-04-25T06:57:48;9.40;99.90
1806;DHT22;901;48.142;11.516;2023-04-25T07:00:15;9.70;99.90
1806;DHT22;901;48.142;11.516;2023-04-25T07:02:42;9.90;99.90
1806;DHT22;901;48.142;11.516;2023-04-25T07:05:10;10.10;99.90
1806;DHT22;901;48.142;11.516;2023-04-25T07:07:37;10.20;99.90
1806;DHT22;901;48.142;11.516;2023-04-25T07:10:04;10.30;99.90
1806;DHT22;901;48.142;11.516;2023-04-25T07:12:32;10.40;99.90
1806;DHT22;901;48.142;11.516;2023-04-25T07:14:58;10.40;99.90
1806;DHT22;901;48.142;11.516;2023-04-25T07:17:31;10.30;99.90
1806;DHT22;901;48.142;11.516;2023-04-25T07:19:58;10.10;99.90
1806;DHT22;901;48.142;11.516;2023-04-25T07:22:26;10.20;99.90
1806;DHT22;901;48.142;11.516;2023-04-25T07:24:53;10.50;99.90
1806;DHT22;901;48.142;11.516;2023-04-25T07:27:20;10.50;99.90
1806;DHT22;901;48.142;11.516;2023-04-25T07:29:46;10.70;99.90
1806;DHT22;901;48.142;11.516;2023-04-25T07:32:13;10.90;99.90
1806;DHT22;901;48.142;11.516;2023-04-25T07:34:40;11.20;99.90
1806;DHT22;901;48.142;11.516;2023-04-25T07:37:07;11.30;99.90
1806;DHT22;901;48.142;11.516;2023-04-25T07:39:35;11.30;99.90
1806;DHT22;901;48.142;11.516;2023-04-25T07:42:02;11.50;99.90
1806;DHT22;901;48.142;11.516;2023-04-25T07:44:29;11.50;99.90
1806;DHT22;901;48.142;11.516;2023-04-25T07:46:56;11.40;99.90
1806;DHT22;901;48.142;11.516;2023-04-25T07:49:23;11.50;99.90
1806;DHT22;901;48.142;11.516;2023-04-25T07:51:50;11.50;99.90
1806;DHT22;901;48.142;11.516;2023-04-25T07:54:17;11.40;99.90
1806;DHT22;901;48.142;11.516;2023-04-25T07:56:45;11.50;99.90
1806;DHT22;901;48.142;11.516;2023-04-25T07:59:12;11.50;99.90
1806;DHT22;901;48.142;11.516;2023-04-25T08:01:38;11.50;99.90
1806;DHT22;901;48.142;11.516;2023-04-25T08:04:05;11.70;99.90
1806;DHT22;901;48.142;11.516;2023-04-25T08:06:32;11.80;99.90
1806;DHT22;901;48.142;11.516;2023-04-25T08:08:59;12.00;99.90
1806;DHT22;901;48.142;11.516;2023-04-25T08:11:26;12.00;99.90
1806;DHT22;901;48.142;11.516;2023-04-25T08:13:54;12.20;99.90
1806;DHT22;901;48.142;11.516;2023-04-25T08:16:21;12.50;99.90
1806;DHT22;901;48.142;11.516;2023-04-25T08:18:47;12.70;99.90
1806;DHT22;901;48.142;11.516;2023-04-25T08:21:15;12.70;99.90
1806;DHT22;901;48.142;11.516;2023-04-25T08:23:42;12.90;99.90
1806;DHT22;901;48.142;11.516;2023-04-25T08:26:08;12.80;99.90
1806;DHT22;901;48.142;11.516;2023-04-25T08:28:35;12.50;99.90
1806;DHT22;901;48.142;11.516;2023-04-25T08:31:04;12.20;99.90
1806;DHT22;901;48.142;11.516;2023-04-25T08:33:30;11.80;99.90
1806;DHT22;901;48.142;11.516;2023-04-25T08:35:58;11.80;99.90
1806;DHT22;901;48.142;11.516;2023-04-25T08:38:25;11.60;99.90
1806;DHT22;901;48.142;11.516;2023-04-25T08:40:51;11.50;99.90
1806;DHT22;901;48.142;11.516;2023-04-25T08:43:19;11.40;99.90
1806;DHT22;901;48.142;11.516;2023-04-25T08:45:47;11.50;99.90
1806;DHT22;901;48.142;11.516;2023-04-25T08:48:16;11.60;99.90
1806;DHT22;901;48.142;11.516;2023-04-25T08:50:48;11.60;99.90
1806;DHT22;901;48.142;11.516;2023-04-25T08:53:17;11.80;99.90
1806;DHT22;901;48.142;11.516;2023-04-25T08:55:48;11.70;99.90
1806;DHT22;901;48.142;11.516;2023-04-25T08:58:16;11.90;99.90
1806;DHT22;901;48.142;11.516;2023-04-25T09:00:46;12.00;99.90
1806;DHT22;901;48.142;11.516;2023-04-25T09:03:14;11.80;99.90
1806;DHT22;901;48.142;11.516;2023-04-25T09:05:41;11.90;99.90
1806;DHT22;901;48.142;11.516;2023-04-25T09:08:08;12.20;99.90
1806;DHT22;901;48.142;11.516;2023-04-25T09:10:36;12.60;99.90
1806;DHT22;901;48.142;11.516;2023-04-25T09:13:05;12.90;99.90
1806;DHT22;901;48.142;11.516;2023-04-25T09:15:32;12.90;99.90
1806;DHT22;901;48.142;11.516;2023-04-25T09:17:59;13.30;99.90
1806;DHT22;901;48.142;11.516;2023-04-25T09:20:28;13.50;99.90
1806;DHT22;901;48.142;11.516;2023-04-25T09:23:05;13.50;99.90
1806;DHT22;901;48.142;11.516;2023-04-25T09:25:36;13.70;99.90
1806;DHT22;901;48.142;11.516;2023-04-25T09:28:05;13.60;99.90
1806;DHT22;901;48.142;11.516;2023-04-25T09:30:33;13.30;99.90
1806;DHT22;901;48.142;11.516;2023-04-25T09:33:05;13.10;99.90
1806;DHT22;901;48.142;11.516;2023-04-25T09:35:37;12.90;99.90
1806;DHT22;901;48.142;11.516;2023-04-25T09:38:08;12.90;99.90
1806;DHT22;901;48.142;11.516;2023-04-25T09:40:39;12.70;99.90
1806;DHT22;901;48.142;11.516;2023-04-25T09:43:09;12.50;99.90
1806;DHT22;901;48.142;11.516;2023-04-25T09:45:41;12.40;99.90
1806;DHT22;901;48.142;11.516;2023-04-25T09:48:11;12.40;99.90
1806;DHT22;901;48.142;11.516;2023-04-25T09:50:39;12.30;99.90
1806;DHT22;901;48.142;11.516;2023-04-25T09:53:07;12.30;99.90
1806;DHT22;901;48.142;11.516;2023-04-25T09:55:34;12.10;99.90
1806;DHT22;901;48.142;11.516;2023-04-25T09:58:04;12.10;99.90
1806;DHT22;901;48.142;11.516;2023-04-25T10:00:33;12.10;99.90
1806;DHT22;901;48.142;11.516;2023-04-25T10:03:01;12.50;99.90
1806;DHT22;901;48.142;11.516;2023-04-25T10:05:31;12.90;99.90
1806;DHT22;901;48.142;11.516;2023-04-25T10:08:02;13.40;99.90
1806;DHT22;901;48.142;11.516;2023-04-25T10:10:30;13.80;99.90
1806;DHT22;901;48.142;11.516;2023-04-25T10:13:03;13.80;99.90
1806;DHT22;901;48.142;11.516;2023-04-25T10:15:30;13.90;99.90
1806;DHT22;901;48.142;11.516;2023-04-25T10:17:58;14.10;99.90
1806;DHT22;901;48.142;11.516;2023-04-25T10:20:26;14.50;99.90
1806;DHT22;901;48.142;11.516;2023-04-25T10:22:54;14.90;99.90
1806;DHT22;901;48.142;11.516;2023-04-25T10:25:24;15.20;99.90
1806;DHT22;901;48.142;11.516;2023-04-25T10:27:51;14.90;99.90
1806;DHT22;901;48.142;11.516;2023-04-25T10:30:18;14.50;99.90
1806;DHT22;901;48.142;11.516;2023-04-25T10:32:45;14.40;99.90
1806;DHT22;901;48.142;11.516;2023-04-25T10:35:14;14.00;99.90
1806;DHT22;901;48.142;11.516;2023-04-25T10:38:02;13.70;99.90
1806;DHT22;901;48.142;11.516;2023-04-25T10:40:31;13.20;99.90
1806;DHT22;901;48.142;11.516;2023-04-25T10:45:59;12.50;99.90
1806;DHT22;901;48.142;11.516;2023-04-25T10:48:26;12.50;99.90
1806;DHT22;901;48.142;11.516;2023-04-25T10:51:07;12.40;99.90
1806;DHT22;901;48.142;11.516;2023-04-25T10:53:34;12.40;99.90
1806;DHT22;901;48.142;11.516;2023-04-25T10:56:09;12.20;99.90
1806;DHT22;901;48.142;11.516;2023-04-25T10:58:42;12.30;99.90
1806;DHT22;901;48.142;11.516;2023-04-25T11:01:08;12.30;99.90
1806;DHT22;901;48.142;11.516;2023-04-25T11:03:40;12.30;99.90
1806;DHT22;901;48.142;11.516;2023-04-25T11:06:11;11.90;99.90
1806;DHT22;901;48.142;11.516;2023-04-25T11:08:48;11.40;99.90
1806;DHT22;901;48.142;11.516;2023-04-25T11:11:16;11.20;99.90
1806;DHT22;901;48.142;11.516;2023-04-25T11:13:48;11.10;99.90
1806;DHT22;901;48.142;11.516;2023-04-25T11:16:15;10.80;99.90
1806;DHT22;901;48.142;11.516;2023-04-25T11:18:42;10.80;99.90
1806;DHT22;901;48.142;11.516;2023-04-25T11:21:09;10.80;99.90
1806;DHT22;901;48.142;11.516;2023-04-25T11:23:36;10.80;99.90
1806;DHT22;901;48.142;11.516;2023-04-25T11:26:03;11.00;99.90
1806;DHT22;901;48.142;11.516;2023-04-25T11:28:31;11.10;99.90
1806;DHT22;901;48.142;11.516;2023-04-25T11:30:58;11.10;99.90
1806;DHT22;901;48.142;11.516;2023-04-25T11:33:25;10.80;99.90
1806;DHT22;901;48.142;11.516;2023-04-25T11:35:53;10.80;99.90
1806;DHT22;901;48.142;11.516;2023-04-25T11:38:22;11.10;99.90
1806;DHT22;901;48.142;11.516;2023-04-25T11:40:52;11.50;99.90
1806;DHT22;901;48.142;11.516;2023-04-25T11:43:20;11.70;99.90
1806;DHT22;901;48.142;11.516;2023-04-25T11:45:49;11.70;99.90
1806;DHT22;901;48.142;11.516;2023-04-25T11:48:16;11.50;99.90
1806;DHT22;901;48.142;11.516;2023-04-25T11:50:43;11.30;99.90
1806;DHT22;901;48.142;11.516;2023-04-25T11:53:10;11.10;99.90
1806;DHT22;901;48.142;11.516;2023-04-25T11:55:37;11.10;99.90
1806;DHT22;901;48.142;11.516;2023-04-25T11:58:05;11.00;99.90
1806;DHT22;901;48.142;11.516;2023-04-25T12:00:32;10.90;99.90
1806;DHT22;901;48.142;11.516;2023-04-25T12:03:01;10.90;99.90
1806;DHT22;901;48.142;11.516;2023-04-25T12:05:29;10.70;99.90
1806;DHT22;901;48.142;11.516;2023-04-25T12:08:09;10.60;99.90
1806;DHT22;901;48.142;11.516;2023-04-25T12:10:37;10.50;99.90
1806;DHT22;901;48.142;11.516;2023-04-25T12:13:18;10.60;99.90
1806;DHT22;901;48.142;11.516;2023-04-25T12:15:46;10.60;99.90
1806;DHT22;901;48.142;11.516;2023-04-25T12:18:14;10.60;99.90
1806;DHT22;901;48.142;11.516;2023-04-25T12:20:41;10.70;99.90
1806;DHT22;901;48.142;11.516;2023-04-25T12:23:08;10.60;99.90
1806;DHT22;901;48.142;11.516;2023-04-25T12:25:37;10.70;99.90
1806;DHT22;901;48.142;11.516;2023-04-25T12:28:11;10.60;99.90
1806;DHT22;901;48.142;11.516;2023-04-25T12:30:55;10.60;99.90
1806;DHT22;901;48.142;11.516;2023-04-25T12:33:24;10.60;99.90
1806;DHT22;901;48.142;11.516;2023-04-25T12:35:52;10.80;99.90
1806;DHT22;901;48.142;11.516;2023-04-25T12:38:23;11.00;99.90
1806;DHT22;901;48.142;11.516;2023-04-25T12:40:50;11.10;99.90
1806;DHT22;901;48.142;11.516;2023-04-25T12:43:16;11.30;99.90
1806;DHT22;901;48.142;11.516;2023-04-25T12:45:43;11.40;99.90
1806;DHT22;901;48.142;11.516;2023-04-25T12:48:10;11.50;99.90
1806;DHT22;901;48.142;11.516;2023-04-25T12:50:38;11.60;99.90
1806;DHT22;901;48.142;11.516;2023-04-25T12:53:06;11.50;99.90
1806;DHT22;901;48.142;11.516;2023-04-25T12:55:33;11.30;99.90
1806;DHT22;901;48.142;11.516;2023-04-25T12:58:00;11.20;99.90
1806;DHT22;901;48.142;11.516;2023-04-25T13:00:28;11.20;99.90
1806;DHT22;901;48.142;11.516;2023-04-25T13:02:55;11.00;99.90
1806;DHT22;901;48.142;11.516;2023-04-25T13:05:22;10.90;99.90
1806;DHT22;901;48.142;11.516;2023-04-25T13:07:50;10.70;99.90
1806;DHT22;901;48.142;11.516;2023-04-25T13:10:17;10.60;99.90
1806;DHT22;901;48.142;11.516;2023-04-25T13:12:44;10.20;99.90
1806;DHT22;901;48.142;11.516;2023-04-25T13:15:12;9.90;99.90
1806;DHT22;901;48.142;11.516;2023-04-25T13:17:41;9.70;99.90
1806;DHT22;901;48.142;11.516;2023-04-25T13:20:09;9.40;99.90
1806;DHT22;901;48.142;11.516;2023-04-25T13:22:37;9.40;99.90
1806;DHT22;901;48.142;11.516;2023-04-25T13:25:07;9.40;99.90
1806;DHT22;901;48.142;11.516;2023-04-25T13:27:34;9.30;99.90
1806;DHT22;901;48.142;11.516;2023-04-25T13:30:03;9.20;99.90
1806;DHT22;901;48.142;11.516;2023-04-25T13:32:33;9.30;99.90
1806;DHT22;901;48.142;11.516;2023-04-25T13:35:02;9.20;99.90
1806;DHT22;901;48.142;11.516;2023-04-25T13:37:29;9.10;99.90
1806;DHT22;901;48.142;11.516;2023-04-25T13:39:58;8.50;99.90
1806;DHT22;901;48.142;11.516;2023-04-25T13:42:26;8.30;99.90
1806;DHT22;901;48.142;11.516;2023-04-25T13:44:53;7.80;99.90
1806;DHT22;901;48.142;11.516;2023-04-25T13:47:20;7.70;99.90
1806;DHT22;901;48.142;11.516;2023-04-25T13:49:47;7.70;99.90
1806;DHT22;901;48.142;11.516;2023-04-25T13:52:14;7.70;99.90
1806;DHT22;901;48.142;11.516;2023-04-25T13:54:41;7.80;99.90
1806;DHT22;901;48.142;11.516;2023-04-25T13:57:07;8.10;99.90
1806;DHT22;901;48.142;11.516;2023-04-25T13:59:37;8.10;99.90
1806;DHT22;901;48.142;11.516;2023-04-25T14:02:04;8.20;99.90
1806;DHT22;901;48.142;11.516;2023-04-25T14:04:31;8.30;99.90
1806;DHT22;901;48.142;11.516;2023-04-25T14:06:58;8.20;99.90
1806;DHT22;901;48.142;11.516;2023-04-25T14:09:25;8.30;99.90
1806;DHT22;901;48.142;11.516;2023-04-25T14:11:52;8.30;99.90
1806;DHT22;901;48.142;11.516;2023-04-25T14:14:20;8.40;99.90
1806;DHT22;901;48.142;11.516;2023-04-25T14:16:48;8.50;99.90
1806;DHT22;901;48.142;11.516;2023-04-25T14:19:16;8.50;99.90
1806;DHT22;901;48.142;11.516;2023-04-25T14:21:43;8.60;99.90
1806;DHT22;901;48.142;11.516;2023-04-25T14:24:10;8.70;99.90
1806;DHT22;901;48.142;11.516;2023-04-25T14:26:37;8.80;99.90
1806;DHT22;901;48.142;11.516;2023-04-25T14:29:05;8.90;99.90
1806;DHT22;901;48.142;11.516;2023-04-25T14:31:32;9.00;99.90
1806;DHT22;901;48.142;11.516;2023-04-25T14:34:01;9.10;99.90
1806;DHT22;901;48.142;11.516;2023-04-25T14:36:28;9.10;99.90
1806;DHT22;901;48.142;11.516;2023-04-25T14:38:56;9.20;99.90
1806;DHT22;901;48.142;11.516;2023-04-25T14:41:23;9.30;99.90
1806;DHT22;901;48.142;11.516;2023-04-25T14:43:50;9.40;99.90
1806;DHT22;901;48.142;11.516;2023-04-25T14:46:18;9.70;99.90
1806;DHT22;901;48.142;11.516;2023-04-25T14:48:45;9.70;99.90
1806;DHT22;901;48.142;11.516;2023-04-25T14:51:13;9.70;99.90
1806;DHT22;901;48.142;11.516;2023-04-25T14:53:40;9.90;99.90
1806;DHT22;901;48.142;11.516;2023-04-25T14:56:07;10.10;99.90
1806;DHT22;901;48.142;11.516;2023-04-25T14:58:35;10.30;99.90
1806;DHT22;901;48.142;11.516;2023-04-25T15:01:02;10.40;99.90
1806;DHT22;901;48.142;11.516;2023-04-25T15:03:29;10.30;99.90
1806;DHT22;901;48.142;11.516;2023-04-25T15:05:57;10.40;99.90
1806;DHT22;901;48.142;11.516;2023-04-25T15:08:25;10.40;99.90
1806;DHT22;901;48.142;11.516;2023-04-25T15:10:52;10.60;99.90
1806;DHT22;901;48.142;11.516;2023-04-25T15:13:19;10.60;99.90
1806;DHT22;901;48.142;11.516;2023-04-25T15:15:46;10.60;99.90
1806;DHT22;901;48.142;11.516;2023-04-25T15:18:16;10.40;99.90
1806;DHT22;901;48.142;11.516;2023-04-25T15:20:43;10.30;99.90
1806;DHT22;901;48.142;11.516;2023-04-25T15:23:10;10.20;99.90
1806;DHT22;901;48.142;11.516;2023-04-25T15:25:39;10.30;99.90
1806;DHT22;901;48.142;11.516;2023-04-25T15:28:05;10.20;99.90
1806;DHT22;901;48.142;11.516;2023-04-25T15:30:32;10.20;99.90
1806;DHT22;901;48.142;11.516;2023-04-25T15:32:59;10.20;99.90
1806;DHT22;901;48.142;11.516;2023-04-25T15:35:26;10.40;99.90
1806;DHT22;901;48.142;11.516;2023-04-25T15:37:53;10.50;99.90
1806;DHT22;901;48.142;11.516;2023-04-25T15:40:19;10.50;99.90
1806;DHT22;901;48.142;11.516;2023-04-25T15:42:49;10.10;99.90
1806;DHT22;901;48.142;11.516;2023-04-25T15:45:17;10.10;99.90
1806;DHT22;901;48.142;11.516;2023-04-25T15:47:45;10.10;99.90
1806;DHT22;901;48.142;11.516;2023-04-25T15:50:12;10.10;99.90
1806;DHT22;901;48.142;11.516;2023-04-25T15:52:40;10.00;99.90
1806;DHT22;901;48.142;11.516;2023-04-25T15:55:08;9.60;99.90
1806;DHT22;901;48.142;11.516;2023-04-25T15:57:35;9.40;99.90
1806;DHT22;901;48.142;11.516;2023-04-25T16:00:05;9.10;99.90
1806;DHT22;901;48.142;11.516;2023-04-25T16:02:36;9.00;99.90
1806;DHT22;901;48.142;11.516;2023-04-25T16:05:03;8.90;99.90
1806;DHT22;901;48.142;11.516;2023-04-25T16:07:30;8.90;99.90
1806;DHT22;901;48.142;11.516;2023-04-25T16:09:57;8.90;99.90
1806;DHT22;901;48.142;11.516;2023-04-25T16:12:24;8.80;99.90
1806;DHT22;901;48.142;11.516;2023-04-25T16:14:53;8.70;99.90